createdAt,value
2022-10-06T00:01:57.187Z,1.70
2022-10-06T00:05:01.328Z,1.33
2022-10-06T00:08:03.943Z,1.67
2022-10-06T00:11:07.545Z,1.67
2022-10-06T00:14:10.227Z,1.47
2022-10-06T00:17:12.873Z,1.42
2022-10-06T00:20:18.099Z,1.33
2022-10-06T00:23:21.062Z,1.90
2022-10-06T00:26:24.268Z,1.55
2022-10-06T00:29:27.229Z,1.42
2022-10-06T00:32:29.937Z,1.50
2022-10-06T00:35:35.559Z,2.17
2022-10-06T00:38:38.202Z,1.57
2022-10-06T00:41:41.005Z,1.48
2022-10-06T00:44:43.619Z,1.58
2022-10-06T00:47:46.323Z,3.40
2022-10-06T00:50:50.973Z,1.73
2022-10-06T00:53:54.019Z,1.93
2022-10-06T00:56:56.943Z,3.20
2022-10-06T00:59:59.729Z,3.05
2022-10-06T01:03:05.738Z,3.38
2022-10-06T01:06:09.891Z,4.17
2022-10-06T01:09:13.598Z,4.30
2022-10-06T01:12:16.761Z,4.40
2022-10-06T01:15:20.010Z,4.13
2022-10-06T01:18:23.836Z,4.45
2022-10-06T01:21:31.520Z,4.40
2022-10-06T01:24:35.620Z,4.67
2022-10-06T01:27:40.006Z,4.00
2022-10-06T01:30:46.048Z,3.97
2022-10-06T01:33:52.356Z,3.97
2022-10-06T01:36:55.392Z,4.03
2022-10-06T01:39:59.480Z,3.08
2022-10-06T01:43:02.354Z,3.00
2022-10-06T01:46:05.311Z,2.58
2022-10-06T01:49:08.171Z,2.17
2022-10-06T01:52:10.948Z,2.58
2022-10-06T01:55:15.879Z,2.42
2022-10-06T01:58:18.653Z,2.07
2022-10-06T02:01:21.360Z,2.75
2022-10-06T02:04:24.197Z,2.15
2022-10-06T02:07:27.047Z,2.00
2022-10-06T02:10:31.177Z,2.20
2022-10-06T02:13:33.850Z,2.30
2022-10-06T02:16:36.489Z,2.17
2022-10-06T02:19:39.183Z,2.20
2022-10-06T02:22:43.834Z,2.67
2022-10-06T02:25:47.867Z,2.30
2022-10-06T02:28:51.106Z,2.57
2022-10-06T02:31:54.875Z,2.03
2022-10-06T02:38:00.022Z,2.47
2022-10-06T02:41:04.081Z,2.40
2022-10-06T02:44:06.843Z,2.20
2022-10-06T02:47:12.602Z,1.90
2022-10-06T02:50:15.306Z,1.90
2022-10-06T02:53:18.785Z,2.10
2022-10-06T02:56:24.452Z,1.85
2022-10-06T02:59:27.485Z,2.27
2022-10-06T03:02:31.261Z,2.30
2022-10-06T03:05:34.167Z,2.50
2022-10-06T03:08:36.856Z,2.28
2022-10-06T03:11:42.547Z,2.47
2022-10-06T03:14:45.269Z,2.37
2022-10-06T03:17:49.788Z,2.67
2022-10-06T03:20:54.028Z,2.50
2022-10-06T03:23:57.522Z,2.70
2022-10-06T03:27:01.619Z,2.13
2022-10-06T03:30:04.940Z,2.30
2022-10-06T03:33:07.637Z,2.53
2022-10-06T03:36:13.157Z,3.03
2022-10-06T03:39:15.900Z,2.80
2022-10-06T03:42:20.020Z,2.25
2022-10-06T03:45:22.811Z,2.10
2022-10-06T03:48:25.831Z,2.20
2022-10-06T03:51:31.356Z,2.33
2022-10-06T03:54:34.063Z,2.20
2022-10-06T03:57:38.225Z,2.08
2022-10-06T04:00:41.317Z,2.33
2022-10-06T04:03:44.473Z,3.08
2022-10-06T04:06:48.068Z,2.60
2022-10-06T04:12:54.892Z,3.20
2022-10-06T04:15:57.565Z,2.53
2022-10-06T04:19:01.528Z,2.85
2022-10-06T04:22:04.731Z,2.70
2022-10-06T04:25:08.691Z,3.35
2022-10-06T04:28:12.783Z,3.07
2022-10-06T04:31:17.477Z,2.90
2022-10-06T04:34:21.527Z,2.40
2022-10-06T04:37:24.296Z,2.73
2022-10-06T04:40:27.078Z,2.78
2022-10-06T04:43:31.185Z,2.63
2022-10-06T04:46:43.098Z,2.73
2022-10-06T04:49:46.768Z,2.37
2022-10-06T04:52:49.518Z,2.50
2022-10-06T04:56:02.590Z,3.25
2022-10-06T04:59:06.653Z,3.15
2022-10-06T05:02:09.484Z,3.20
2022-10-06T05:05:12.261Z,2.90
2022-10-06T05:08:14.949Z,2.88
2022-10-06T05:11:19.474Z,3.00
2022-10-06T05:14:25.814Z,2.80
2022-10-06T05:17:28.926Z,3.53
2022-10-06T05:20:31.772Z,2.97
2022-10-06T05:23:36.151Z,2.97
2022-10-06T05:26:38.990Z,2.80
2022-10-06T05:29:43.402Z,2.60
2022-10-06T05:32:47.119Z,3.33
2022-10-06T05:35:53.489Z,3.33
2022-10-06T05:38:56.303Z,4.13
2022-10-06T05:41:59.241Z,3.20
2022-10-06T05:45:03.486Z,3.60
2022-10-06T05:48:06.211Z,2.90
2022-10-06T05:51:11.117Z,3.00
2022-10-06T05:54:14.434Z,3.20
2022-10-06T05:57:17.208Z,2.78
2022-10-06T06:00:21.477Z,2.95
2022-10-06T06:03:24.340Z,3.27
2022-10-06T06:06:29.192Z,4.50
2022-10-06T06:09:31.978Z,3.30
2022-10-06T06:12:34.672Z,3.85
2022-10-06T06:15:56.450Z,3.67
2022-10-06T06:18:59.837Z,2.80
2022-10-06T06:22:02.541Z,3.15
2022-10-06T06:25:05.550Z,2.88
2022-10-06T06:28:08.966Z,2.90
2022-10-06T06:34:22.947Z,3.23
2022-10-06T06:37:25.655Z,3.40
2022-10-06T06:40:28.432Z,3.67
2022-10-06T06:43:31.559Z,4.43
2022-10-06T06:49:43.798Z,3.30
2022-10-06T06:52:47.031Z,3.47
2022-10-06T06:55:51.262Z,3.60
2022-10-06T06:58:54.421Z,3.97
2022-10-06T07:01:58.854Z,3.30
2022-10-06T07:05:01.663Z,3.53
2022-10-06T07:08:04.515Z,4.07
2022-10-06T07:11:15.446Z,3.63
2022-10-06T07:14:18.334Z,3.40
2022-10-06T07:17:40.087Z,3.80
2022-10-06T07:21:02.761Z,3.70
2022-10-06T07:24:34.587Z,3.77
2022-10-06T07:27:39.794Z,3.70
2022-10-06T07:30:42.543Z,3.50
2022-10-06T07:33:46.476Z,3.10
2022-10-06T07:36:54.074Z,3.10
2022-10-06T07:39:57.065Z,3.10
2022-10-06T07:43:00.549Z,3.45
2022-10-06T07:46:03.271Z,2.97
2022-10-06T07:49:08.479Z,2.95
2022-10-06T07:52:11.421Z,3.03
2022-10-06T07:55:17.468Z,2.58
2022-10-06T07:58:22.595Z,1.80
2022-10-06T08:01:26.868Z,1.37
2022-10-06T08:04:30.997Z,1.40
2022-10-06T08:07:33.807Z,0.97
2022-10-06T08:10:36.680Z,1.50
2022-10-06T08:13:42.235Z,1.30
2022-10-06T08:16:44.860Z,1.50
2022-10-06T08:19:48.911Z,1.08
2022-10-06T08:22:51.659Z,1.00
2022-10-06T08:25:56.377Z,1.20
2022-10-06T08:29:00.360Z,1.20
2022-10-06T08:32:04.255Z,1.23
2022-10-06T08:35:08.850Z,1.40
2022-10-06T08:38:11.461Z,1.30
2022-10-06T08:41:22.782Z,0.70
2022-10-06T08:44:30.754Z,0.80
2022-10-06T08:47:36.277Z,1.00
2022-10-06T08:50:47.071Z,0.90
2022-10-06T08:53:59.478Z,0.90
2022-10-06T08:57:08.656Z,1.10
2022-10-06T09:00:13.638Z,1.20
2022-10-06T09:03:23.995Z,1.00
2022-10-06T09:06:45.201Z,1.40
2022-10-06T09:09:57.131Z,1.30
2022-10-06T09:13:04.809Z,1.20
2022-10-06T09:16:09.746Z,1.30
2022-10-06T09:19:17.452Z,1.33
2022-10-06T09:22:23.130Z,1.60
2022-10-06T09:25:28.766Z,1.20
2022-10-06T09:28:34.359Z,0.70
2022-10-06T09:31:38.946Z,1.20
2022-10-06T09:34:45.644Z,0.90
2022-10-06T09:37:56.925Z,0.90
2022-10-06T09:41:00.047Z,0.80
2022-10-06T09:44:04.852Z,1.35
2022-10-06T09:47:24.320Z,1.43
2022-10-06T09:50:28.362Z,0.70
2022-10-06T09:53:36.839Z,1.03
2022-10-06T09:56:41.881Z,1.07
2022-10-06T09:59:45.959Z,0.87
2022-10-06T10:02:49.068Z,0.73
2022-10-06T10:05:55.008Z,0.70
2022-10-06T10:09:23.015Z,0.83
2022-10-06T10:12:28.605Z,1.13
2022-10-06T10:15:33.852Z,1.17
2022-10-06T10:18:36.637Z,0.90
2022-10-06T10:21:39.502Z,1.00
2022-10-06T10:24:49.691Z,1.30
2022-10-06T10:27:58.886Z,0.87
2022-10-06T10:31:06.211Z,0.77
2022-10-06T10:34:25.149Z,0.80
2022-10-06T10:37:35.162Z,1.00
2022-10-06T10:40:43.008Z,0.70
2022-10-06T10:43:49.840Z,1.50
2022-10-06T10:46:53.839Z,1.03
2022-10-06T10:50:01.772Z,1.23
2022-10-06T10:53:10.455Z,0.70
2022-10-06T10:56:16.139Z,0.80
2022-10-06T10:59:22.482Z,0.97
2022-10-06T11:02:25.334Z,0.70
2022-10-06T11:05:41.045Z,1.70
2022-10-06T11:08:49.565Z,1.00
2022-10-06T11:12:04.606Z,1.17
2022-10-06T11:15:13.754Z,1.07
2022-10-06T11:18:26.264Z,0.87
2022-10-06T11:21:32.790Z,1.53
2022-10-06T11:24:41.565Z,1.30
2022-10-06T11:27:52.836Z,1.00
2022-10-06T11:31:01.719Z,0.87
2022-10-06T11:34:06.454Z,0.63
2022-10-06T11:37:18.952Z,0.97
2022-10-06T11:40:36.360Z,0.93
2022-10-06T11:43:47.628Z,1.67
2022-10-06T11:46:53.256Z,1.00
2022-10-06T11:49:56.843Z,1.00
2022-10-06T11:52:59.505Z,0.90
2022-10-06T11:56:45.035Z,0.80
2022-10-06T11:59:49.193Z,0.70
2022-10-06T12:02:52.254Z,1.27
2022-10-06T12:05:56.485Z,0.70
2022-10-06T12:08:59.480Z,1.27
2022-10-06T12:12:03.845Z,0.93
2022-10-06T12:18:46.407Z,0.90
2022-10-06T12:21:56.270Z,1.33
2022-10-06T12:25:04.017Z,0.70
2022-10-06T12:28:11.176Z,0.90
2022-10-06T12:31:30.455Z,0.70
2022-10-06T12:34:57.452Z,0.87
2022-10-06T12:38:04.833Z,0.70
2022-10-06T12:41:11.321Z,0.80
2022-10-06T12:44:24.018Z,1.10
2022-10-06T12:47:33.866Z,1.40
2022-10-06T12:50:38.049Z,0.93
2022-10-06T12:53:46.685Z,0.97
2022-10-06T12:56:58.908Z,1.03
2022-10-06T13:00:01.679Z,1.27
2022-10-06T13:03:08.820Z,1.00
2022-10-06T13:06:11.907Z,0.90
2022-10-06T13:09:16.751Z,1.10
2022-10-06T13:12:28.323Z,1.00
2022-10-06T13:15:34.682Z,1.20
2022-10-06T13:18:38.922Z,0.93
2022-10-06T13:21:44.168Z,0.80
2022-10-06T13:24:55.784Z,0.90
2022-10-06T13:28:02.149Z,0.93
2022-10-06T13:31:17.225Z,1.10
2022-10-06T13:34:26.996Z,0.83
2022-10-06T13:37:30.072Z,1.30
2022-10-06T13:40:44.947Z,1.33
2022-10-06T13:43:55.820Z,0.90
2022-10-06T13:47:03.180Z,1.10
2022-10-06T13:50:10.125Z,1.03
2022-10-06T13:53:25.700Z,1.23
2022-10-06T13:56:34.686Z,1.10
2022-10-06T13:59:38.421Z,0.97
2022-10-06T14:02:41.833Z,1.33
2022-10-06T14:05:47.520Z,1.10
2022-10-06T14:08:52.499Z,1.23
2022-10-06T14:12:03.554Z,1.33
2022-10-06T14:15:18.023Z,1.70
2022-10-06T14:18:23.453Z,1.20
2022-10-06T14:21:34.801Z,1.53
2022-10-06T14:24:37.664Z,1.40
2022-10-06T14:27:43.134Z,0.98
2022-10-06T14:30:47.332Z,1.07
2022-10-06T14:33:52.064Z,1.45
2022-10-06T14:36:57.235Z,0.98
2022-10-06T14:40:12.504Z,1.17
2022-10-06T14:43:15.340Z,1.17
2022-10-06T14:49:21.522Z,1.60
2022-10-06T14:52:25.703Z,0.90
2022-10-06T14:55:30.509Z,1.00
2022-10-06T14:58:33.849Z,1.10
2022-10-06T15:01:38.500Z,0.98
2022-10-06T15:04:41.592Z,1.07
2022-10-06T15:11:06.126Z,1.10
2022-10-06T15:14:09.879Z,0.95
2022-10-06T15:17:13.224Z,1.20
2022-10-06T15:20:17.253Z,1.07
2022-10-06T15:23:21.443Z,0.97
2022-10-06T15:26:42.581Z,1.20
2022-10-06T15:29:45.442Z,0.93
2022-10-06T15:32:49.369Z,1.08
2022-10-06T15:36:15.372Z,1.33
2022-10-06T15:39:21.007Z,0.80
2022-10-06T15:42:25.194Z,1.40
2022-10-06T15:45:28.349Z,1.17
2022-10-06T15:48:31.162Z,1.23
2022-10-06T15:51:37.190Z,2.13
2022-10-06T15:54:41.841Z,1.17
2022-10-06T15:57:44.555Z,1.17
2022-10-06T16:00:47.295Z,1.05
2022-10-06T16:03:50.875Z,1.40
2022-10-06T16:07:00.129Z,0.90
2022-10-06T16:10:04.498Z,1.30
2022-10-06T16:13:07.419Z,1.20
2022-10-06T16:16:10.168Z,0.90
2022-10-06T16:19:13.310Z,1.50
2022-10-06T16:22:18.039Z,1.35
2022-10-06T16:25:22.123Z,1.40
2022-10-06T16:28:25.122Z,1.10
2022-10-06T16:31:27.982Z,1.23
2022-10-06T16:34:31.452Z,1.20
2022-10-06T16:37:34.286Z,1.63
2022-10-06T16:41:04.641Z,1.20
2022-10-06T16:44:07.521Z,1.67
2022-10-06T16:47:10.350Z,1.23
2022-10-06T16:50:13.112Z,1.73
2022-10-06T16:53:17.332Z,1.75
2022-10-06T16:56:23.498Z,2.43
2022-10-06T16:59:30.361Z,2.23
2022-10-06T17:02:33.973Z,1.50
2022-10-06T17:05:39.560Z,1.87
2022-10-06T17:08:42.985Z,1.90
2022-10-06T17:14:55.189Z,1.50
2022-10-06T17:17:58.067Z,2.03
2022-10-06T17:21:15.447Z,1.83
2022-10-06T17:24:27.925Z,2.00
2022-10-06T17:27:36.076Z,2.23
2022-10-06T17:30:52.626Z,2.17
2022-10-06T17:33:55.771Z,2.17
2022-10-06T17:36:59.305Z,2.45
2022-10-06T17:40:01.990Z,1.53
2022-10-06T17:43:06.057Z,2.25
2022-10-06T17:46:13.313Z,2.20
2022-10-06T17:49:20.025Z,2.50
2022-10-06T17:52:24.393Z,2.23
2022-10-06T17:55:28.031Z,1.97
2022-10-06T17:58:32.125Z,1.70
2022-10-06T18:01:36.156Z,1.90
2022-10-06T18:04:39.256Z,2.10
2022-10-06T18:07:45.653Z,1.80
2022-10-06T18:11:06.122Z,1.80
2022-10-06T18:14:12.354Z,2.10
2022-10-06T18:17:15.301Z,1.90
2022-10-06T18:20:21.510Z,2.20
2022-10-06T18:23:24.523Z,2.30
2022-10-06T18:26:27.254Z,1.98
2022-10-06T18:29:35.403Z,1.98
2022-10-06T18:34:58.820Z,2.20
2022-10-06T18:36:17.876Z,1.80
2022-10-06T18:39:20.672Z,2.27
2022-10-06T18:42:24.113Z,2.40
2022-10-06T18:45:45.823Z,2.13
2022-10-06T18:48:58.642Z,2.27
2022-10-06T18:52:01.621Z,1.70
2022-10-06T18:55:04.612Z,2.13
2022-10-06T18:58:07.297Z,2.05
2022-10-06T19:01:15.238Z,2.88
2022-10-06T19:04:19.253Z,2.40
2022-10-06T19:07:22.640Z,2.40
2022-10-06T19:10:29.995Z,2.10
2022-10-06T19:13:32.597Z,2.40
2022-10-06T19:16:36.877Z,2.80
2022-10-06T19:19:50.344Z,2.37
2022-10-06T19:22:52.936Z,2.70
2022-10-06T19:25:59.774Z,3.15
2022-10-06T19:29:08.126Z,5.37
2022-10-06T19:32:13.684Z,3.67
2022-10-06T19:35:16.588Z,2.60
2022-10-06T19:38:19.398Z,2.67
2022-10-06T19:41:43.188Z,3.17
2022-10-06T19:44:45.851Z,2.47
2022-10-06T19:47:53.235Z,3.15
2022-10-06T19:50:55.926Z,3.27
2022-10-06T19:54:00.409Z,3.22
2022-10-06T19:57:05.683Z,2.97
2022-10-06T20:00:10.231Z,3.13
2022-10-06T20:03:14.218Z,2.70
2022-10-06T20:06:17.011Z,3.63
2022-10-06T20:09:21.530Z,3.00
2022-10-06T20:12:25.510Z,2.90
2022-10-06T20:15:29.401Z,3.97
2022-10-06T20:18:38.280Z,2.88
2022-10-06T20:21:41.430Z,3.00
2022-10-06T20:24:47.690Z,2.88
2022-10-06T20:27:51.244Z,3.73
2022-10-06T20:34:00.026Z,3.43
2022-10-06T20:37:06.365Z,4.00
2022-10-06T20:40:28.111Z,3.30
2022-10-06T20:43:35.617Z,3.83
2022-10-06T20:46:39.811Z,3.93
2022-10-06T20:49:43.905Z,3.40
2022-10-06T20:52:47.092Z,3.77
2022-10-06T20:55:52.484Z,3.50
2022-10-06T20:58:55.320Z,3.00
2022-10-06T21:01:59.437Z,3.15
2022-10-06T21:05:07.333Z,3.40
2022-10-06T21:08:09.994Z,3.43
2022-10-06T21:11:13.856Z,3.15
2022-10-06T21:14:17.631Z,3.83
2022-10-06T21:17:20.339Z,3.60
2022-10-06T21:20:27.509Z,2.88
2022-10-06T21:23:30.497Z,3.80
2022-10-06T21:26:36.155Z,3.00
2022-10-06T21:29:39.105Z,2.60
2022-10-06T21:32:42.547Z,3.53
2022-10-06T21:35:46.709Z,2.55
2022-10-06T21:38:51.121Z,2.93
2022-10-06T21:41:53.923Z,3.10
2022-10-06T21:44:56.656Z,3.80
2022-10-06T21:47:59.542Z,2.85
2022-10-06T21:51:03.686Z,3.00
2022-10-06T21:54:10.554Z,3.10
2022-10-06T21:57:15.687Z,3.00
2022-10-06T22:00:19.706Z,3.03
2022-10-06T22:03:22.413Z,3.47
2022-10-06T22:06:26.957Z,3.35
2022-10-06T22:09:29.782Z,3.97
2022-10-06T22:12:32.505Z,4.50
2022-10-06T22:15:36.950Z,3.58
2022-10-06T22:18:41.704Z,3.10
2022-10-06T22:21:47.003Z,3.70
2022-10-06T22:24:49.783Z,2.87
2022-10-06T22:27:52.676Z,3.67
2022-10-06T22:31:03.385Z,3.00
2022-10-06T22:34:06.855Z,3.20
2022-10-06T22:37:11.122Z,2.90
2022-10-06T22:40:13.854Z,3.77
2022-10-06T22:43:16.650Z,2.92
2022-10-06T22:46:19.420Z,4.13
2022-10-06T22:49:22.351Z,2.80
2022-10-06T22:52:26.429Z,3.00
2022-10-06T22:55:29.259Z,3.00
2022-10-06T22:58:32.112Z,2.70
2022-10-06T23:01:34.907Z,2.95
2022-10-06T23:04:37.678Z,3.40
2022-10-06T23:07:42.091Z,2.33
2022-10-06T23:10:45.106Z,3.00
2022-10-06T23:13:48.569Z,2.75
2022-10-06T23:16:51.400Z,3.50
2022-10-06T23:19:54.189Z,2.80
2022-10-06T23:22:58.321Z,3.15
2022-10-06T23:26:05.697Z,2.63
2022-10-06T23:29:08.554Z,2.70
2022-10-06T23:32:11.320Z,2.80
2022-10-06T23:35:14.092Z,2.40
2022-10-06T23:38:18.277Z,2.92
2022-10-06T23:41:21.438Z,2.43
2022-10-06T23:44:24.351Z,3.30
2022-10-06T23:47:27.112Z,2.42
2022-10-06T23:50:29.829Z,3.00
2022-10-06T23:53:34.539Z,2.80
2022-10-06T23:56:37.408Z,2.97
2022-10-06T23:59:40.275Z,2.45
